createdAt,value
2018-05-01T00:01:26.302Z,13.30
2018-05-01T00:03:53.692Z,13.30
2018-05-01T00:06:21.108Z,13.27
2018-05-01T00:08:48.492Z,13.22
2018-05-01T00:11:15.868Z,13.21
2018-05-01T00:13:43.341Z,13.11
2018-05-01T00:16:10.822Z,13.09
2018-05-01T00:18:38.260Z,12.93
2018-05-01T00:21:05.644Z,12.76
2018-05-01T00:23:33.073Z,12.59
2018-05-01T00:26:00.457Z,12.53
2018-05-01T00:28:27.885Z,12.44
2018-05-01T00:30:55.264Z,12.52
2018-05-01T00:33:22.657Z,12.53
2018-05-01T00:35:50.049Z,12.52
2018-05-01T00:38:18.118Z,12.58
2018-05-01T00:40:45.504Z,12.38
2018-05-01T00:43:13.515Z,12.41
2018-05-01T00:45:41.001Z,12.19
2018-05-01T00:48:08.389Z,12.27
2018-05-01T00:50:35.784Z,12.26
2018-05-01T00:53:03.195Z,12.17
2018-05-01T00:55:30.600Z,11.94
2018-05-01T00:57:58.069Z,11.85
2018-05-01T01:00:25.469Z,11.84
2018-05-01T01:02:52.890Z,11.75
2018-05-01T01:05:20.312Z,11.75
2018-05-01T01:07:47.720Z,11.73
2018-05-01T01:10:15.121Z,11.73
2018-05-01T01:12:42.501Z,11.72
2018-05-01T01:15:09.961Z,11.64
2018-05-01T01:17:37.447Z,11.52
2018-05-01T01:20:04.857Z,11.50
2018-05-01T01:22:32.346Z,11.52
2018-05-01T01:24:59.728Z,11.58
2018-05-01T01:27:27.164Z,11.52
2018-05-01T01:29:54.620Z,11.56
2018-05-01T01:32:21.998Z,11.57
2018-05-01T01:34:49.389Z,11.47
2018-05-01T01:37:16.264Z,11.42
2018-05-01T01:39:43.117Z,11.35
2018-05-01T01:44:51.056Z,11.39
2018-05-01T01:47:17.904Z,11.29
2018-05-01T01:49:44.752Z,11.12
2018-05-01T01:52:11.656Z,11.03
2018-05-01T01:54:38.524Z,10.98
2018-05-01T01:57:05.357Z,10.99
2018-05-01T01:59:32.204Z,10.93
2018-05-01T02:01:59.053Z,10.85
2018-05-01T02:04:25.921Z,10.75
2018-05-01T02:06:52.792Z,10.67
2018-05-01T02:09:19.669Z,10.69
2018-05-01T02:11:46.517Z,10.76
2018-05-01T02:14:13.368Z,10.64
2018-05-01T02:16:40.214Z,10.56
2018-05-01T02:19:07.069Z,10.52
2018-05-01T02:21:33.986Z,10.63
2018-05-01T02:24:00.829Z,10.60
2018-05-01T02:26:27.757Z,10.61
2018-05-01T02:28:54.613Z,10.59
2018-05-01T02:31:21.541Z,10.51
2018-05-01T02:33:48.488Z,10.31
2018-05-01T02:36:15.345Z,10.37
2018-05-01T02:38:42.190Z,10.25
2018-05-01T02:41:09.132Z,10.23
2018-05-01T02:43:35.909Z,10.14
2018-05-01T02:46:02.801Z,10.03
2018-05-01T02:48:29.718Z,10.12
2018-05-01T02:50:56.663Z,10.18
2018-05-01T02:53:23.575Z,10.08
2018-05-01T02:55:50.423Z,9.92
2018-05-01T02:58:17.294Z,9.84
2018-05-01T03:00:44.147Z,9.80
2018-05-01T03:03:10.997Z,9.67
2018-05-01T03:05:37.841Z,9.68
2018-05-01T03:08:04.682Z,9.66
2018-05-01T03:10:31.536Z,9.63
2018-05-01T03:12:58.441Z,9.62
2018-05-01T03:15:25.395Z,9.61
2018-05-01T03:17:52.234Z,9.61
2018-05-01T03:20:19.077Z,9.62
2018-05-01T03:22:45.921Z,9.68
2018-05-01T03:25:12.768Z,9.65
2018-05-01T03:27:39.701Z,9.70
2018-05-01T03:30:06.553Z,9.70
2018-05-01T03:32:33.398Z,9.43
2018-05-01T03:35:00.353Z,9.41
2018-05-01T03:37:27.292Z,9.28
2018-05-01T03:39:54.800Z,9.30
2018-05-01T03:42:21.662Z,9.18
2018-05-01T03:44:48.540Z,9.23
2018-05-01T03:47:15.414Z,9.26
2018-05-01T03:49:42.290Z,9.33
2018-05-01T03:52:09.137Z,9.24
2018-05-01T03:54:35.999Z,9.12
2018-05-01T03:57:02.838Z,9.13
2018-05-01T03:59:29.688Z,9.13
2018-05-01T04:01:56.538Z,9.02
2018-05-01T04:04:23.433Z,9.00
2018-05-01T04:06:50.301Z,9.00
2018-05-01T04:09:17.213Z,8.98
2018-05-01T04:11:44.157Z,8.95
2018-05-01T04:14:11.008Z,8.91
2018-05-01T04:16:37.857Z,8.79
2018-05-01T04:19:04.793Z,8.84
2018-05-01T04:21:31.652Z,8.82
2018-05-01T04:23:58.581Z,8.84
2018-05-01T04:26:25.475Z,8.68
2018-05-01T04:28:52.308Z,8.69
2018-05-01T04:31:19.168Z,8.74
2018-05-01T04:33:46.169Z,8.75
2018-05-01T04:36:13.053Z,8.72
2018-05-01T04:38:39.902Z,8.63
2018-05-01T04:41:06.754Z,8.55
2018-05-01T04:43:33.592Z,8.63
2018-05-01T04:46:00.462Z,8.47
2018-05-01T04:48:27.304Z,8.58
2018-05-01T04:50:54.205Z,8.45
2018-05-01T04:53:21.119Z,8.42
2018-05-01T04:55:48.063Z,8.37
2018-05-01T04:58:14.917Z,8.39
2018-05-01T05:00:41.790Z,8.44
2018-05-01T05:03:08.636Z,8.41
2018-05-01T05:05:35.490Z,8.37
2018-05-01T05:08:02.333Z,8.39
2018-05-01T05:10:29.209Z,8.37
2018-05-01T05:12:56.138Z,8.43
2018-05-01T05:15:23.076Z,8.31
2018-05-01T05:17:49.953Z,8.28
2018-05-01T05:20:16.868Z,8.43
2018-05-01T05:22:43.788Z,8.45
2018-05-01T05:25:10.657Z,8.47
2018-05-01T05:27:37.496Z,8.48
2018-05-01T05:30:04.345Z,8.54
2018-05-01T05:32:31.187Z,8.59
2018-05-01T05:34:58.148Z,8.51
2018-05-01T05:37:24.978Z,8.52
2018-05-01T05:39:51.832Z,8.54
2018-05-01T05:42:18.687Z,8.54
2018-05-01T05:44:45.536Z,8.41
2018-05-01T05:47:12.450Z,8.37
2018-05-01T05:49:39.302Z,8.44
2018-05-01T05:52:06.222Z,8.38
2018-05-01T05:54:33.060Z,8.47
2018-05-01T05:56:59.908Z,8.48
2018-05-01T05:59:26.856Z,8.45
2018-05-01T06:01:53.797Z,8.38
2018-05-01T06:04:20.650Z,8.39
2018-05-01T06:06:47.589Z,8.34
2018-05-01T06:09:14.559Z,8.40
2018-05-01T06:11:41.481Z,8.32
2018-05-01T06:14:08.322Z,8.38
2018-05-01T06:16:35.176Z,8.33
2018-05-01T06:19:02.109Z,8.41
2018-05-01T06:21:28.964Z,8.33
2018-05-01T06:23:55.889Z,8.41
2018-05-01T06:26:22.737Z,8.48
2018-05-01T06:28:49.682Z,8.46
2018-05-01T06:31:16.613Z,8.40
2018-05-01T06:33:43.381Z,8.35
2018-05-01T06:36:10.226Z,8.26
2018-05-01T06:38:37.153Z,8.21
2018-05-01T06:41:04.001Z,8.10
2018-05-01T06:43:30.936Z,8.14
2018-05-01T06:45:57.790Z,8.05
2018-05-01T06:48:24.728Z,7.87
2018-05-01T06:50:51.746Z,7.90
2018-05-01T06:53:18.426Z,7.91
2018-05-01T06:55:45.357Z,7.89
2018-05-01T06:58:12.297Z,7.85
2018-05-01T07:00:39.161Z,7.89
2018-05-01T07:03:05.999Z,7.92
2018-05-01T07:05:32.933Z,7.82
2018-05-01T07:07:59.773Z,7.93
2018-05-01T07:10:26.616Z,7.90
2018-05-01T07:12:53.459Z,7.89
2018-05-01T07:15:20.397Z,7.87
2018-05-01T07:17:47.241Z,7.87
2018-05-01T07:20:14.189Z,7.87
2018-05-01T07:22:41.029Z,7.83
2018-05-01T07:25:07.881Z,7.93
2018-05-01T07:27:34.871Z,7.96
2018-05-01T07:30:01.770Z,7.90
2018-05-01T07:32:28.620Z,7.84
2018-05-01T07:34:55.544Z,7.89
2018-05-01T07:37:22.403Z,7.94
2018-05-01T07:39:49.241Z,7.88
2018-05-01T07:42:16.093Z,7.99
2018-05-01T07:44:42.938Z,8.00
2018-05-01T07:47:09.784Z,8.02
2018-05-01T07:49:36.633Z,7.99
2018-05-01T07:52:03.486Z,7.93
2018-05-01T07:54:30.337Z,7.97
2018-05-01T07:56:57.316Z,7.96
2018-05-01T07:59:24.153Z,8.01
2018-05-01T08:01:51.005Z,8.09
2018-05-01T08:04:17.861Z,7.95
2018-05-01T08:06:44.693Z,7.98
2018-05-01T08:09:11.636Z,8.09
2018-05-01T08:11:38.582Z,8.05
2018-05-01T08:14:05.430Z,8.02
2018-05-01T08:16:32.386Z,8.08
2018-05-01T08:18:59.217Z,8.13
2018-05-01T08:21:26.162Z,8.22
2018-05-01T08:23:53.005Z,8.12
2018-05-01T08:26:19.860Z,8.04
2018-05-01T08:28:46.699Z,8.06
2018-05-01T08:31:13.561Z,8.13
2018-05-01T08:33:40.404Z,8.14
2018-05-01T08:36:07.257Z,8.20
2018-05-01T08:38:34.169Z,8.11
2018-05-01T08:41:01.026Z,8.11
2018-05-01T08:43:27.860Z,8.16
2018-05-01T08:45:54.774Z,8.11
2018-05-01T08:48:21.621Z,8.20
2018-05-01T08:50:48.500Z,8.29
2018-05-01T08:53:15.817Z,8.25
2018-05-01T08:55:42.958Z,8.25
2018-05-01T08:58:11.788Z,8.33
2018-05-01T09:00:39.308Z,8.29
2018-05-01T09:03:06.135Z,8.37
2018-05-01T09:05:32.986Z,8.44
2018-05-01T09:07:59.820Z,8.47
2018-05-01T09:10:26.660Z,8.42
2018-05-01T09:12:53.525Z,8.41
2018-05-01T09:15:20.373Z,8.56
2018-05-01T09:17:47.367Z,8.53
2018-05-01T09:20:14.192Z,8.61
2018-05-01T09:22:41.106Z,8.61
2018-05-01T09:25:07.963Z,8.46
2018-05-01T09:27:34.912Z,8.50
2018-05-01T09:30:01.751Z,8.50
2018-05-01T09:32:28.682Z,8.55
2018-05-01T09:34:55.524Z,8.44
2018-05-01T09:37:22.388Z,8.42
2018-05-01T09:39:49.227Z,8.42
2018-05-01T09:42:16.083Z,8.60
2018-05-01T09:44:42.923Z,8.66
2018-05-01T09:47:09.829Z,8.67
2018-05-01T09:49:36.677Z,8.68
2018-05-01T09:52:03.626Z,8.73
2018-05-01T09:54:30.998Z,8.76
2018-05-01T09:56:58.429Z,8.80
2018-05-01T09:59:25.910Z,8.79
2018-05-01T10:01:53.277Z,8.79
2018-05-01T10:04:20.714Z,8.85
2018-05-01T10:06:48.105Z,8.79
2018-05-01T10:09:15.497Z,8.57
2018-05-01T10:11:42.883Z,8.63
2018-05-01T10:14:10.348Z,8.54
2018-05-01T10:16:37.736Z,8.53
2018-05-01T10:19:05.116Z,8.70
2018-05-01T10:21:32.504Z,8.58
2018-05-01T10:23:59.882Z,8.58
2018-05-01T10:26:27.298Z,8.52
2018-05-01T10:28:54.701Z,8.62
2018-05-01T10:31:22.109Z,8.50
2018-05-01T10:33:49.492Z,8.55
2018-05-01T10:36:16.883Z,8.53
2018-05-01T10:38:44.404Z,8.54
2018-05-01T10:41:11.774Z,8.62
2018-05-01T10:43:39.157Z,8.70
2018-05-01T10:46:06.629Z,8.61
2018-05-01T10:48:34.005Z,8.55
2018-05-01T10:51:01.408Z,8.61
2018-05-01T10:53:28.789Z,8.47
2018-05-01T10:55:56.169Z,8.53
2018-05-01T10:58:23.557Z,8.42
2018-05-01T11:00:50.933Z,8.39
2018-05-01T11:03:19.195Z,8.42
2018-05-01T11:05:46.589Z,8.37
2018-05-01T11:08:13.980Z,8.49
2018-05-01T11:10:41.400Z,8.47
2018-05-01T11:13:08.789Z,8.57
2018-05-01T11:15:36.221Z,8.55
2018-05-01T11:18:03.683Z,8.56
2018-05-01T11:20:31.128Z,8.49
2018-05-01T11:22:58.593Z,8.47
2018-05-01T11:25:26.057Z,8.49
2018-05-01T11:27:53.441Z,8.44
2018-05-01T11:30:20.854Z,8.49
2018-05-01T11:32:49.128Z,8.65
2018-05-01T11:35:16.580Z,8.70
2018-05-01T11:37:43.992Z,8.80
2018-05-01T11:40:11.401Z,8.72
2018-05-01T11:42:38.795Z,8.72
2018-05-01T11:45:06.222Z,8.75
2018-05-01T11:47:33.614Z,8.92
2018-05-01T11:50:01.022Z,8.92
2018-05-01T11:52:28.489Z,9.01
2018-05-01T11:54:55.869Z,9.05
2018-05-01T11:57:23.288Z,9.13
2018-05-01T11:59:50.672Z,9.09
2018-05-01T12:02:18.072Z,9.26
2018-05-01T12:04:45.453Z,9.29
2018-05-01T12:07:12.836Z,9.29
2018-05-01T12:09:40.234Z,9.30
2018-05-01T12:12:07.726Z,9.17
2018-05-01T12:14:35.111Z,9.32
2018-05-01T12:17:02.544Z,9.38
2018-05-01T12:19:29.998Z,9.66
2018-05-01T12:21:57.393Z,9.66
2018-05-01T12:24:24.794Z,9.61
2018-05-01T12:26:52.262Z,9.75
2018-05-01T12:29:19.710Z,9.81
2018-05-01T12:31:47.122Z,9.80
2018-05-01T12:34:14.552Z,9.70
2018-05-01T12:36:41.988Z,9.66
2018-05-01T12:39:09.433Z,9.76
2018-05-01T12:41:36.821Z,9.90
2018-05-01T12:44:04.209Z,9.70
2018-05-01T12:46:31.614Z,9.67
2018-05-01T12:48:59.019Z,9.70
2018-05-01T12:51:26.405Z,9.81
2018-05-01T12:53:53.961Z,9.87
2018-05-01T12:56:21.316Z,10.08
2018-05-01T12:58:48.738Z,9.96
2018-05-01T13:01:16.128Z,9.98
2018-05-01T13:03:43.596Z,9.98
2018-05-01T13:06:11.107Z,10.00
2018-05-01T13:08:38.406Z,10.06
2018-05-01T13:11:05.869Z,9.97
2018-05-01T13:13:33.325Z,9.95
2018-05-01T13:16:00.729Z,10.02
2018-05-01T13:18:28.139Z,10.02
2018-05-01T13:20:55.521Z,9.99
2018-05-01T13:23:22.920Z,10.02
2018-05-01T13:25:50.329Z,10.12
2018-05-01T13:28:17.721Z,10.01
2018-05-01T13:30:45.228Z,10.18
2018-05-01T13:33:12.625Z,10.14
2018-05-01T13:35:40.026Z,10.42
2018-05-01T13:38:07.526Z,10.62
2018-05-01T13:40:34.917Z,10.64
2018-05-01T13:43:02.356Z,10.83
2018-05-01T13:45:29.793Z,11.07
2018-05-01T13:47:57.245Z,11.30
2018-05-01T13:50:24.642Z,11.29
2018-05-01T13:52:52.029Z,11.53
2018-05-01T13:55:19.466Z,11.35
2018-05-01T13:57:46.894Z,11.54
2018-05-01T14:00:14.328Z,11.78
2018-05-01T14:02:41.745Z,11.79
2018-05-01T14:05:09.129Z,11.80
2018-05-01T14:07:36.565Z,11.81
2018-05-01T14:10:04.068Z,12.20
2018-05-01T14:12:31.457Z,12.50
2018-05-01T14:14:58.846Z,12.64
2018-05-01T14:17:26.251Z,12.65
2018-05-01T14:19:53.672Z,12.76
2018-05-01T14:22:21.077Z,12.92
2018-05-01T14:24:48.474Z,12.99
2018-05-01T14:27:15.956Z,13.10
2018-05-01T14:29:43.328Z,13.06
2018-05-01T14:32:10.725Z,13.15
2018-05-01T14:34:38.109Z,13.16
2018-05-01T14:37:05.514Z,13.18
2018-05-01T14:39:32.906Z,13.43
2018-05-01T14:42:00.456Z,13.44
2018-05-01T14:44:27.838Z,13.47
2018-05-01T14:46:55.226Z,13.17
2018-05-01T14:49:22.641Z,13.30
2018-05-01T14:51:50.034Z,13.60
2018-05-01T14:54:17.433Z,13.90
2018-05-01T14:56:44.920Z,14.15
2018-05-01T14:59:12.320Z,14.33
2018-05-01T15:01:39.831Z,14.67
2018-05-01T15:04:07.142Z,14.70
2018-05-01T15:06:34.840Z,14.60
2018-05-01T15:09:02.354Z,14.70
2018-05-01T15:11:29.705Z,14.53
2018-05-01T15:13:57.101Z,14.37
2018-05-01T15:16:24.485Z,14.03
2018-05-01T15:18:51.884Z,14.07
2018-05-01T15:21:19.393Z,14.10
2018-05-01T15:23:46.832Z,13.95
2018-05-01T15:26:14.293Z,13.67
2018-05-01T15:28:41.688Z,13.87
2018-05-01T15:31:09.192Z,13.64
2018-05-01T15:33:36.521Z,13.57
2018-05-01T15:36:04.018Z,13.82
2018-05-01T15:38:31.416Z,13.97
2018-05-01T15:40:58.833Z,14.14
2018-05-01T15:43:26.285Z,14.19
2018-05-01T15:45:53.679Z,14.18
2018-05-01T15:48:21.072Z,14.17
2018-05-01T15:50:48.563Z,14.45
2018-05-01T15:53:16.008Z,14.31
2018-05-01T15:55:43.401Z,14.19
2018-05-01T15:58:10.824Z,14.31
2018-05-01T16:00:38.385Z,14.56
2018-05-01T16:03:05.708Z,14.69
2018-05-01T16:05:33.101Z,14.74
2018-05-01T16:08:00.485Z,14.66
2018-05-01T16:10:27.887Z,14.49
2018-05-01T16:12:55.304Z,14.29
2018-05-01T16:15:22.713Z,14.16
2018-05-01T16:17:50.109Z,14.03
2018-05-01T16:20:17.503Z,13.80
2018-05-01T16:22:44.909Z,13.73
2018-05-01T16:25:12.324Z,13.73
2018-05-01T16:27:39.712Z,13.59
2018-05-01T16:30:07.114Z,13.44
2018-05-01T16:32:34.503Z,13.38
2018-05-01T16:35:01.993Z,13.52
2018-05-01T16:37:29.378Z,13.35
2018-05-01T16:39:56.773Z,13.50
2018-05-01T16:42:24.165Z,13.55
2018-05-01T16:44:51.585Z,13.38
2018-05-01T16:47:18.980Z,13.47
2018-05-01T16:49:46.392Z,13.79
2018-05-01T16:52:13.785Z,13.88
2018-05-01T16:54:41.184Z,13.94
2018-05-01T16:57:08.574Z,14.10
2018-05-01T16:59:36.119Z,14.07
2018-05-01T17:02:03.683Z,13.88
2018-05-01T17:04:31.238Z,13.55
2018-05-01T17:06:58.704Z,13.52
2018-05-01T17:09:26.207Z,13.62
2018-05-01T17:11:53.801Z,13.73
2018-05-01T17:14:21.413Z,13.67
2018-05-01T17:16:48.822Z,13.82
2018-05-01T17:19:16.217Z,13.67
2018-05-01T17:21:43.628Z,13.48
2018-05-01T17:24:11.131Z,13.33
2018-05-01T17:26:38.512Z,12.97
2018-05-01T17:29:06.042Z,12.95
2018-05-01T17:31:33.394Z,13.10
2018-05-01T17:34:00.817Z,12.96
2018-05-01T17:36:28.237Z,12.93
2018-05-01T17:38:55.644Z,12.82
2018-05-01T17:41:23.041Z,12.69
2018-05-01T17:43:50.447Z,12.85
2018-05-01T17:46:17.903Z,12.97
2018-05-01T17:48:45.341Z,12.81
2018-05-01T17:51:12.693Z,12.82
2018-05-01T17:53:40.089Z,12.63
2018-05-01T17:56:07.492Z,12.55
2018-05-01T17:58:34.912Z,12.54
2018-05-01T18:01:02.317Z,12.52
2018-05-01T18:03:29.795Z,12.40
2018-05-01T18:05:57.210Z,12.48
2018-05-01T18:08:24.620Z,12.29
2018-05-01T18:10:52.012Z,12.18
2018-05-01T18:13:19.428Z,12.30
2018-05-01T18:15:46.821Z,12.22
2018-05-01T18:18:14.230Z,12.02
2018-05-01T18:20:41.683Z,11.89
2018-05-01T18:23:09.060Z,11.68
2018-05-01T18:25:36.464Z,11.67
2018-05-01T18:28:03.844Z,11.86
2018-05-01T18:30:31.248Z,11.78
2018-05-01T18:32:58.630Z,11.80
2018-05-01T18:35:26.033Z,11.71
2018-05-01T18:37:53.413Z,11.70
2018-05-01T18:40:20.824Z,11.46
2018-05-01T18:42:48.213Z,11.34
2018-05-01T18:45:15.636Z,11.34
2018-05-01T18:47:43.023Z,11.11
2018-05-01T18:50:10.419Z,11.15
2018-05-01T18:52:37.804Z,11.23
2018-05-01T18:55:05.198Z,11.27
2018-05-01T18:57:32.595Z,11.28
2018-05-01T19:00:00.070Z,11.15
2018-05-01T19:02:27.469Z,11.09
2018-05-01T19:04:54.873Z,11.10
2018-05-01T19:07:22.265Z,11.03
2018-05-01T19:09:49.673Z,10.89
2018-05-01T19:12:17.084Z,11.03
2018-05-01T19:14:44.478Z,11.02
2018-05-01T19:17:11.861Z,11.01
2018-05-01T19:19:39.331Z,10.79
2018-05-01T19:22:06.733Z,10.71
2018-05-01T19:24:34.407Z,10.69
2018-05-01T19:27:01.787Z,10.45
2018-05-01T19:29:29.206Z,10.59
2018-05-01T19:31:56.601Z,10.65
2018-05-01T19:34:24.098Z,10.52
2018-05-01T19:36:51.396Z,10.64
2018-05-01T19:39:18.841Z,10.66
2018-05-01T19:41:46.288Z,10.55
2018-05-01T19:44:13.682Z,10.40
2018-05-01T19:46:41.094Z,10.45
2018-05-01T19:49:08.773Z,10.36
2018-05-01T19:51:36.221Z,10.27
2018-05-01T19:54:03.678Z,10.17
2018-05-01T19:56:31.076Z,10.10
2018-05-01T19:58:58.493Z,10.10
2018-05-01T20:01:25.937Z,9.92
2018-05-01T20:03:53.358Z,9.97
2018-05-01T20:06:20.758Z,9.99
2018-05-01T20:08:48.260Z,10.02
2018-05-01T20:11:15.561Z,9.99
2018-05-01T20:13:42.950Z,9.82
2018-05-01T20:16:10.338Z,9.85
2018-05-01T20:18:37.733Z,9.84
2018-05-01T20:21:05.137Z,9.81
2018-05-01T20:23:32.517Z,9.80
2018-05-01T20:25:59.917Z,9.75
2018-05-01T20:28:27.301Z,9.71
2018-05-01T20:30:54.704Z,9.49
2018-05-01T20:33:22.097Z,9.51
2018-05-01T20:35:49.507Z,9.54
2018-05-01T20:38:16.867Z,9.49
2018-05-01T20:40:44.353Z,9.49
2018-05-01T20:43:11.737Z,9.39
2018-05-01T20:45:39.149Z,9.31
2018-05-01T20:48:06.536Z,9.15
2018-05-01T20:50:33.917Z,9.14
2018-05-01T20:53:01.338Z,9.05
2018-05-01T20:55:28.733Z,9.02
2018-05-01T20:57:56.126Z,9.01
2018-05-01T21:00:23.517Z,8.95
2018-05-01T21:02:51.120Z,8.95
2018-05-01T21:05:18.605Z,8.82
2018-05-01T21:07:46.013Z,8.74
2018-05-01T21:10:13.404Z,8.69
2018-05-01T21:12:40.809Z,8.61
2018-05-01T21:15:08.326Z,8.47
2018-05-01T21:17:35.733Z,8.42
2018-05-01T21:20:03.116Z,8.38
2018-05-01T21:22:30.509Z,8.31
2018-05-01T21:24:57.910Z,8.26
2018-05-01T21:27:25.305Z,8.19
2018-05-01T21:29:52.713Z,8.01
2018-05-01T21:32:20.097Z,8.00
2018-05-01T21:34:47.578Z,7.94
2018-05-01T21:37:15.052Z,7.86
2018-05-01T21:39:42.445Z,7.77
2018-05-01T21:42:09.861Z,7.64
2018-05-01T21:44:37.273Z,7.63
2018-05-01T21:47:04.679Z,7.50
2018-05-01T21:49:32.062Z,7.42
2018-05-01T21:51:59.482Z,7.35
2018-05-01T21:54:26.872Z,7.29
2018-05-01T21:56:54.261Z,7.24
2018-05-01T21:59:21.741Z,7.12
2018-05-01T22:01:49.147Z,7.03
2018-05-01T22:04:16.672Z,7.03
2018-05-01T22:06:44.029Z,6.97
2018-05-01T22:09:11.418Z,6.92
2018-05-01T22:11:38.808Z,6.86
2018-05-01T22:14:06.265Z,6.79
2018-05-01T22:16:33.655Z,6.51
2018-05-01T22:19:01.049Z,6.24
2018-05-01T22:21:28.447Z,6.26
2018-05-01T22:23:55.850Z,6.24
2018-05-01T22:26:23.240Z,6.24
2018-05-01T22:28:50.715Z,6.23
2018-05-01T22:31:18.097Z,6.23
2018-05-01T22:33:45.502Z,6.22
2018-05-01T22:36:12.889Z,6.17
2018-05-01T22:38:40.305Z,6.05
2018-05-01T22:41:07.725Z,5.98
2018-05-01T22:43:35.105Z,5.83
2018-05-01T22:46:02.513Z,5.90
2018-05-01T22:48:29.903Z,5.88
2018-05-01T22:50:57.289Z,5.87
2018-05-01T22:53:24.748Z,5.77
2018-05-01T22:55:52.158Z,5.52
2018-05-01T22:58:19.544Z,5.46
2018-05-01T23:00:46.949Z,5.42
2018-05-01T23:03:14.329Z,5.38
2018-05-01T23:05:41.741Z,5.41
2018-05-01T23:08:09.120Z,5.38
2018-05-01T23:10:36.518Z,5.26
2018-05-01T23:13:03.918Z,5.19
2018-05-01T23:15:31.306Z,5.22
2018-05-01T23:17:58.765Z,5.17
2018-05-01T23:20:26.157Z,5.06
2018-05-01T23:22:53.555Z,4.74
2018-05-01T23:25:20.978Z,4.74
2018-05-01T23:27:48.361Z,4.87
2018-05-01T23:30:15.777Z,4.85
2018-05-01T23:32:43.188Z,4.78
2018-05-01T23:35:10.601Z,4.81
2018-05-01T23:37:37.981Z,4.87
2018-05-01T23:40:05.361Z,4.82
2018-05-01T23:42:32.837Z,4.85
2018-05-01T23:45:00.281Z,4.82
2018-05-01T23:47:27.681Z,4.78
2018-05-01T23:49:55.061Z,4.81
2018-05-01T23:52:22.449Z,4.74
2018-05-01T23:54:49.908Z,4.71
2018-05-01T23:57:17.297Z,4.70
2018-05-01T23:59:44.684Z,4.70
